sensor_id;sensor_type;location;lat;lon;timestamp;temperature;humidity
2621;DHT22;1320;48.128;11.592;2022-09-09T00:02:27;18.90;99.90
2621;DHT22;1320;48.128;11.592;2022-09-09T00:05:17;18.80;99.90
2621;DHT22;1320;48.128;11.592;2022-09-09T00:07:51;18.80;99.90
2621;DHT22;1320;48.128;11.592;2022-09-09T00:10:33;18.80;99.90
2621;DHT22;1320;48.128;11.592;2022-09-09T00:16:52;18.70;99.90
2621;DHT22;1320;48.128;11.592;2022-09-09T00:19:16;18.70;99.90
2621;DHT22;1320;48.128;11.592;2022-09-09T00:24:48;18.60;99.90
2621;DHT22;1320;48.128;11.592;2022-09-09T00:27:48;18.60;99.90
2621;DHT22;1320;48.128;11.592;2022-09-09T00:30:31;18.60;99.90
2621;DHT22;1320;48.128;11.592;2022-09-09T00:33:03;18.50;99.90
2621;DHT22;1320;48.128;11.592;2022-09-09T00:35:36;18.50;99.90
2621;DHT22;1320;48.128;11.592;2022-09-09T00:38:10;18.50;99.90
2621;DHT22;1320;48.128;11.592;2022-09-09T00:40:45;18.50;99.90
2621;DHT22;1320;48.128;11.592;2022-09-09T00:43:28;18.50;99.90
2621;DHT22;1320;48.128;11.592;2022-09-09T00:57:29;18.50;99.90
2621;DHT22;1320;48.128;11.592;2022-09-09T01:11:00;18.60;99.90
2621;DHT22;1320;48.128;11.592;2022-09-09T01:13:35;18.60;99.90
2621;DHT22;1320;48.128;11.592;2022-09-09T01:16:04;18.50;99.90
2621;DHT22;1320;48.128;11.592;2022-09-09T01:18:40;18.50;99.90
2621;DHT22;1320;48.128;11.592;2022-09-09T01:21:27;18.50;99.90
2621;DHT22;1320;48.128;11.592;2022-09-09T01:26:30;18.40;99.90
2621;DHT22;1320;48.128;11.592;2022-09-09T01:28:57;18.30;99.90
2621;DHT22;1320;48.128;11.592;2022-09-09T01:34:14;18.30;99.90
2621;DHT22;1320;48.128;11.592;2022-09-09T01:36:49;18.20;99.90
2621;DHT22;1320;48.128;11.592;2022-09-09T01:39:17;18.20;99.90
2621;DHT22;1320;48.128;11.592;2022-09-09T01:41:43;18.20;99.90
2621;DHT22;1320;48.128;11.592;2022-09-09T01:44:10;18.20;99.90
2621;DHT22;1320;48.128;11.592;2022-09-09T01:46:36;18.20;99.90
2621;DHT22;1320;48.128;11.592;2022-09-09T01:49:04;18.20;99.90
2621;DHT22;1320;48.128;11.592;2022-09-09T01:51:30;18.10;99.90
2621;DHT22;1320;48.128;11.592;2022-09-09T01:53:56;18.10;99.90
2621;DHT22;1320;48.128;11.592;2022-09-09T01:59:27;18.00;99.90
2621;DHT22;1320;48.128;11.592;2022-09-09T02:02:17;18.00;99.90
2621;DHT22;1320;48.128;11.592;2022-09-09T02:04:58;18.00;99.90
2621;DHT22;1320;48.128;11.592;2022-09-09T02:07:40;18.00;99.90
2621;DHT22;1320;48.128;11.592;2022-09-09T02:10:22;18.00;99.90
2621;DHT22;1320;48.128;11.592;2022-09-09T02:12:59;17.90;99.90
2621;DHT22;1320;48.128;11.592;2022-09-09T02:18:01;17.90;99.90
2621;DHT22;1320;48.128;11.592;2022-09-09T02:20:31;17.90;99.90
2621;DHT22;1320;48.128;11.592;2022-09-09T02:22:59;17.90;99.90
2621;DHT22;1320;48.128;11.592;2022-09-09T02:25:28;17.90;99.90
2621;DHT22;1320;48.128;11.592;2022-09-09T02:27:55;17.90;99.90
2621;DHT22;1320;48.128;11.592;2022-09-09T02:30:23;17.90;99.90
2621;DHT22;1320;48.128;11.592;2022-09-09T02:32:51;17.90;99.90
2621;DHT22;1320;48.128;11.592;2022-09-09T02:35:20;17.90;99.90
2621;DHT22;1320;48.128;11.592;2022-09-09T02:37:48;17.90;99.90
2621;DHT22;1320;48.128;11.592;2022-09-09T02:40:15;17.90;99.90
2621;DHT22;1320;48.128;11.592;2022-09-09T02:42:43;17.80;99.90
2621;DHT22;1320;48.128;11.592;2022-09-09T02:45:11;17.80;99.90
2621;DHT22;1320;48.128;11.592;2022-09-09T02:47:51;17.80;99.90
2621;DHT22;1320;48.128;11.592;2022-09-09T02:50:34;17.80;99.90
2621;DHT22;1320;48.128;11.592;2022-09-09T02:53:17;17.80;99.90
2621;DHT22;1320;48.128;11.592;2022-09-09T02:55:54;17.80;99.90
2621;DHT22;1320;48.128;11.592;2022-09-09T02:58:22;17.80;99.90
2621;DHT22;1320;48.128;11.592;2022-09-09T03:00:50;17.80;99.90
2621;DHT22;1320;48.128;11.592;2022-09-09T03:03:17;17.80;99.90
2621;DHT22;1320;48.128;11.592;2022-09-09T03:05:44;17.80;99.90
2621;DHT22;1320;48.128;11.592;2022-09-09T03:08:10;17.80;99.90
2621;DHT22;1320;48.128;11.592;2022-09-09T03:10:36;17.80;99.90
2621;DHT22;1320;48.128;11.592;2022-09-09T03:13:03;17.80;99.90
2621;DHT22;1320;48.128;11.592;2022-09-09T03:15:31;17.80;99.90
2621;DHT22;1320;48.128;11.592;2022-09-09T03:17:58;17.70;99.90
2621;DHT22;1320;48.128;11.592;2022-09-09T03:20:24;17.70;99.90
2621;DHT22;1320;48.128;11.592;2022-09-09T03:22:52;17.70;99.90
2621;DHT22;1320;48.128;11.592;2022-09-09T03:25:18;17.70;99.90
2621;DHT22;1320;48.128;11.592;2022-09-09T03:27:44;17.70;99.90
2621;DHT22;1320;48.128;11.592;2022-09-09T03:30:10;17.70;99.90
2621;DHT22;1320;48.128;11.592;2022-09-09T03:32:36;17.70;99.90
2621;DHT22;1320;48.128;11.592;2022-09-09T03:35:02;17.70;99.90
2621;DHT22;1320;48.128;11.592;2022-09-09T03:37:28;17.60;99.90
2621;DHT22;1320;48.128;11.592;2022-09-09T03:39:54;17.60;99.90
2621;DHT22;1320;48.128;11.592;2022-09-09T03:42:20;17.60;99.90
2621;DHT22;1320;48.128;11.592;2022-09-09T03:44:46;17.60;99.90
2621;DHT22;1320;48.128;11.592;2022-09-09T03:47:18;17.50;99.90
2621;DHT22;1320;48.128;11.592;2022-09-09T03:49:44;17.50;99.90
2621;DHT22;1320;48.128;11.592;2022-09-09T03:52:09;17.50;99.90
2621;DHT22;1320;48.128;11.592;2022-09-09T03:54:35;17.40;99.90
2621;DHT22;1320;48.128;11.592;2022-09-09T03:57:01;17.40;99.90
2621;DHT22;1320;48.128;11.592;2022-09-09T03:59:27;17.40;99.90
2621;DHT22;1320;48.128;11.592;2022-09-09T04:01:53;17.40;99.90
2621;DHT22;1320;48.128;11.592;2022-09-09T04:04:20;17.40;99.90
2621;DHT22;1320;48.128;11.592;2022-09-09T04:06:46;17.40;99.90
2621;DHT22;1320;48.128;11.592;2022-09-09T04:09:13;17.40;99.90
2621;DHT22;1320;48.128;11.592;2022-09-09T04:11:39;17.40;99.90
2621;DHT22;1320;48.128;11.592;2022-09-09T04:14:05;17.40;99.90
2621;DHT22;1320;48.128;11.592;2022-09-09T04:16:32;17.40;99.90
2621;DHT22;1320;48.128;11.592;2022-09-09T04:18:58;17.40;99.90
2621;DHT22;1320;48.128;11.592;2022-09-09T04:21:25;17.40;99.90
2621;DHT22;1320;48.128;11.592;2022-09-09T04:23:51;17.40;99.90
2621;DHT22;1320;48.128;11.592;2022-09-09T04:26:17;17.50;99.90
2621;DHT22;1320;48.128;11.592;2022-09-09T04:28:42;17.50;99.90
2621;DHT22;1320;48.128;11.592;2022-09-09T04:31:12;17.50;99.90
2621;DHT22;1320;48.128;11.592;2022-09-09T04:33:40;17.50;99.90
2621;DHT22;1320;48.128;11.592;2022-09-09T04:36:06;17.50;99.90
2621;DHT22;1320;48.128;11.592;2022-09-09T04:38:32;17.50;99.90
2621;DHT22;1320;48.128;11.592;2022-09-09T04:40:57;17.50;99.90
2621;DHT22;1320;48.128;11.592;2022-09-09T04:43:24;17.50;99.90
2621;DHT22;1320;48.128;11.592;2022-09-09T04:45:51;17.40;99.90
2621;DHT22;1320;48.128;11.592;2022-09-09T04:48:17;17.40;99.90
2621;DHT22;1320;48.128;11.592;2022-09-09T04:50:43;17.40;99.90
2621;DHT22;1320;48.128;11.592;2022-09-09T04:53:09;17.40;99.90
2621;DHT22;1320;48.128;11.592;2022-09-09T04:55:35;17.40;99.90
2621;DHT22;1320;48.128;11.592;2022-09-09T04:58:05;17.40;99.90
2621;DHT22;1320;48.128;11.592;2022-09-09T05:00:31;17.40;99.90
2621;DHT22;1320;48.128;11.592;2022-09-09T05:02:57;17.40;99.90
2621;DHT22;1320;48.128;11.592;2022-09-09T05:05:23;17.40;99.90
2621;DHT22;1320;48.128;11.592;2022-09-09T05:07:48;17.40;99.90
2621;DHT22;1320;48.128;11.592;2022-09-09T05:10:14;17.40;99.90
2621;DHT22;1320;48.128;11.592;2022-09-09T05:12:41;17.40;99.90
2621;DHT22;1320;48.128;11.592;2022-09-09T05:15:07;17.40;99.90
2621;DHT22;1320;48.128;11.592;2022-09-09T05:17:33;17.40;99.90
2621;DHT22;1320;48.128;11.592;2022-09-09T05:19:59;17.40;99.90
2621;DHT22;1320;48.128;11.592;2022-09-09T05:22:24;17.40;99.90
2621;DHT22;1320;48.128;11.592;2022-09-09T05:24:50;17.40;99.90
2621;DHT22;1320;48.128;11.592;2022-09-09T05:27:17;17.40;99.90
2621;DHT22;1320;48.128;11.592;2022-09-09T05:29:45;17.40;99.90
2621;DHT22;1320;48.128;11.592;2022-09-09T05:32:10;17.40;99.90
2621;DHT22;1320;48.128;11.592;2022-09-09T05:34:36;17.40;99.90
2621;DHT22;1320;48.128;11.592;2022-09-09T05:37:03;17.40;99.90
2621;DHT22;1320;48.128;11.592;2022-09-09T05:39:30;17.40;99.90
2621;DHT22;1320;48.128;11.592;2022-09-09T05:41:55;17.40;99.90
2621;DHT22;1320;48.128;11.592;2022-09-09T05:44:21;17.50;99.90
2621;DHT22;1320;48.128;11.592;2022-09-09T05:46:49;17.50;99.90
2621;DHT22;1320;48.128;11.592;2022-09-09T05:49:15;17.60;99.90
2621;DHT22;1320;48.128;11.592;2022-09-09T05:51:41;17.60;99.90
2621;DHT22;1320;48.128;11.592;2022-09-09T05:54:08;17.60;99.90
2621;DHT22;1320;48.128;11.592;2022-09-09T05:56:34;17.60;99.90
2621;DHT22;1320;48.128;11.592;2022-09-09T05:59:00;17.60;99.90
2621;DHT22;1320;48.128;11.592;2022-09-09T06:01:28;17.60;99.90
2621;DHT22;1320;48.128;11.592;2022-09-09T06:03:55;17.60;99.90
2621;DHT22;1320;48.128;11.592;2022-09-09T06:06:25;17.70;99.90
2621;DHT22;1320;48.128;11.592;2022-09-09T06:08:53;17.80;99.90
2621;DHT22;1320;48.128;11.592;2022-09-09T06:11:28;17.80;99.90
2621;DHT22;1320;48.128;11.592;2022-09-09T06:13:56;17.90;99.90
2621;DHT22;1320;48.128;11.592;2022-09-09T06:16:24;17.90;99.90
2621;DHT22;1320;48.128;11.592;2022-09-09T06:18:53;18.00;99.90
2621;DHT22;1320;48.128;11.592;2022-09-09T06:21:28;17.90;99.90
2621;DHT22;1320;48.128;11.592;2022-09-09T06:23:55;18.00;99.90
2621;DHT22;1320;48.128;11.592;2022-09-09T06:26:27;18.00;99.90
2621;DHT22;1320;48.128;11.592;2022-09-09T06:28:54;18.00;99.90
2621;DHT22;1320;48.128;11.592;2022-09-09T06:31:21;18.00;99.90
2621;DHT22;1320;48.128;11.592;2022-09-09T06:33:50;18.00;99.90
2621;DHT22;1320;48.128;11.592;2022-09-09T06:36:21;18.00;99.90
2621;DHT22;1320;48.128;11.592;2022-09-09T06:38:48;18.00;99.90
2621;DHT22;1320;48.128;11.592;2022-09-09T06:41:16;18.10;99.90
2621;DHT22;1320;48.128;11.592;2022-09-09T06:43:42;18.10;99.90
2621;DHT22;1320;48.128;11.592;2022-09-09T06:46:11;18.10;99.90
2621;DHT22;1320;48.128;11.592;2022-09-09T06:48:39;18.10;99.90
2621;DHT22;1320;48.128;11.592;2022-09-09T06:51:09;18.10;99.90
2621;DHT22;1320;48.128;11.592;2022-09-09T06:53:37;18.20;99.90
2621;DHT22;1320;48.128;11.592;2022-09-09T06:56:28;18.20;99.90
2621;DHT22;1320;48.128;11.592;2022-09-09T06:59:01;18.20;99.90
2621;DHT22;1320;48.128;11.592;2022-09-09T07:01:31;18.30;99.90
2621;DHT22;1320;48.128;11.592;2022-09-09T07:03:58;18.30;99.90
2621;DHT22;1320;48.128;11.592;2022-09-09T07:06:31;18.40;99.90
2621;DHT22;1320;48.128;11.592;2022-09-09T07:08:59;18.50;99.90
2621;DHT22;1320;48.128;11.592;2022-09-09T07:11:27;18.50;99.90
2621;DHT22;1320;48.128;11.592;2022-09-09T07:13:53;18.50;99.90
2621;DHT22;1320;48.128;11.592;2022-09-09T07:16:21;18.50;99.90
2621;DHT22;1320;48.128;11.592;2022-09-09T07:18:50;18.50;99.90
2621;DHT22;1320;48.128;11.592;2022-09-09T07:21:17;18.50;99.90
2621;DHT22;1320;48.128;11.592;2022-09-09T07:23:43;18.50;99.90
2621;DHT22;1320;48.128;11.592;2022-09-09T07:26:15;18.60;99.90
2621;DHT22;1320;48.128;11.592;2022-09-09T07:28:41;18.60;99.90
2621;DHT22;1320;48.128;11.592;2022-09-09T07:31:09;18.60;99.90
2621;DHT22;1320;48.128;11.592;2022-09-09T07:33:39;18.60;99.90
2621;DHT22;1320;48.128;11.592;2022-09-09T07:36:07;18.60;99.90
2621;DHT22;1320;48.128;11.592;2022-09-09T07:38:47;18.70;99.90
2621;DHT22;1320;48.128;11.592;2022-09-09T07:41:19;18.70;99.90
2621;DHT22;1320;48.128;11.592;2022-09-09T07:43:47;18.80;99.90
2621;DHT22;1320;48.128;11.592;2022-09-09T07:46:14;18.90;99.90
2621;DHT22;1320;48.128;11.592;2022-09-09T07:48:48;19.00;99.90
2621;DHT22;1320;48.128;11.592;2022-09-09T07:51:23;19.20;99.90
2621;DHT22;1320;48.128;11.592;2022-09-09T07:53:53;19.30;99.90
2621;DHT22;1320;48.128;11.592;2022-09-09T07:56:19;19.30;99.90
2621;DHT22;1320;48.128;11.592;2022-09-09T07:58:48;19.40;99.90
2621;DHT22;1320;48.128;11.592;2022-09-09T08:01:23;19.50;99.90
2621;DHT22;1320;48.128;11.592;2022-09-09T08:04:01;19.50;99.90
2621;DHT22;1320;48.128;11.592;2022-09-09T08:06:34;19.60;99.90
2621;DHT22;1320;48.128;11.592;2022-09-09T08:09:00;19.60;99.90
2621;DHT22;1320;48.128;11.592;2022-09-09T08:11:28;19.60;99.90
2621;DHT22;1320;48.128;11.592;2022-09-09T08:13:54;19.70;99.90
2621;DHT22;1320;48.128;11.592;2022-09-09T08:16:23;19.70;99.90
2621;DHT22;1320;48.128;11.592;2022-09-09T08:18:50;19.80;99.90
2621;DHT22;1320;48.128;11.592;2022-09-09T08:21:19;19.80;99.90
2621;DHT22;1320;48.128;11.592;2022-09-09T08:23:46;19.90;99.90
2621;DHT22;1320;48.128;11.592;2022-09-09T08:26:20;19.90;99.90
2621;DHT22;1320;48.128;11.592;2022-09-09T08:28:50;20.00;99.90
2621;DHT22;1320;48.128;11.592;2022-09-09T08:31:31;20.00;99.90
2621;DHT22;1320;48.128;11.592;2022-09-09T08:33:58;20.00;99.90
2621;DHT22;1320;48.128;11.592;2022-09-09T08:36:26;20.10;99.90
2621;DHT22;1320;48.128;11.592;2022-09-09T08:38:54;20.20;99.90
2621;DHT22;1320;48.128;11.592;2022-09-09T08:47:37;20.30;99.90
2621;DHT22;1320;48.128;11.592;2022-09-09T08:50:21;20.30;99.90
2621;DHT22;1320;48.128;11.592;2022-09-09T08:58:05;20.40;99.90
2621;DHT22;1320;48.128;11.592;2022-09-09T09:00:50;20.40;99.90
2621;DHT22;1320;48.128;11.592;2022-09-09T09:09:10;20.40;99.90
2621;DHT22;1320;48.128;11.592;2022-09-09T09:11:46;20.40;99.90
2621;DHT22;1320;48.128;11.592;2022-09-09T09:14:23;20.40;99.90
2621;DHT22;1320;48.128;11.592;2022-09-09T09:17:06;20.50;99.90
2621;DHT22;1320;48.128;11.592;2022-09-09T09:19:33;20.50;99.90
2621;DHT22;1320;48.128;11.592;2022-09-09T09:22:06;20.50;99.90
2621;DHT22;1320;48.128;11.592;2022-09-09T09:29:59;20.60;99.90
2621;DHT22;1320;48.128;11.592;2022-09-09T09:32:30;20.70;99.90
2621;DHT22;1320;48.128;11.592;2022-09-09T09:34:57;20.80;99.90
2621;DHT22;1320;48.128;11.592;2022-09-09T09:37:29;20.90;99.90
2621;DHT22;1320;48.128;11.592;2022-09-09T09:39:55;21.00;99.90
2621;DHT22;1320;48.128;11.592;2022-09-09T09:42:22;21.10;99.90
2621;DHT22;1320;48.128;11.592;2022-09-09T09:44:48;21.20;99.90
2621;DHT22;1320;48.128;11.592;2022-09-09T09:47:19;21.20;99.90
2621;DHT22;1320;48.128;11.592;2022-09-09T09:49:58;21.20;99.90
2621;DHT22;1320;48.128;11.592;2022-09-09T09:52:27;21.30;99.90
2621;DHT22;1320;48.128;11.592;2022-09-09T09:54:55;21.20;99.90
2621;DHT22;1320;48.128;11.592;2022-09-09T09:57:27;21.10;99.90
2621;DHT22;1320;48.128;11.592;2022-09-09T10:02:46;21.00;99.90
2621;DHT22;1320;48.128;11.592;2022-09-09T10:07:41;20.90;99.90
2621;DHT22;1320;48.128;11.592;2022-09-09T10:10:15;20.80;99.90
2621;DHT22;1320;48.128;11.592;2022-09-09T10:13:05;20.70;99.90
2621;DHT22;1320;48.128;11.592;2022-09-09T10:26:39;20.50;99.90
2621;DHT22;1320;48.128;11.592;2022-09-09T10:29:43;20.40;99.90
2621;DHT22;1320;48.128;11.592;2022-09-09T10:32:37;20.30;99.90
2621;DHT22;1320;48.128;11.592;2022-09-09T10:35:24;20.30;99.90
2621;DHT22;1320;48.128;11.592;2022-09-09T10:56:08;20.10;99.90
2621;DHT22;1320;48.128;11.592;2022-09-09T10:58:46;20.10;99.90
2621;DHT22;1320;48.128;11.592;2022-09-09T11:01:23;20.00;99.90
2621;DHT22;1320;48.128;11.592;2022-09-09T11:03:57;20.00;99.90
2621;DHT22;1320;48.128;11.592;2022-09-09T11:06:34;20.10;99.90
2621;DHT22;1320;48.128;11.592;2022-09-09T11:09:03;20.20;99.90
2621;DHT22;1320;48.128;11.592;2022-09-09T11:11:44;20.40;99.90
2621;DHT22;1320;48.128;11.592;2022-09-09T11:14:19;20.50;99.90
2621;DHT22;1320;48.128;11.592;2022-09-09T11:16:59;20.70;99.90
2621;DHT22;1320;48.128;11.592;2022-09-09T11:19:43;20.90;99.90
2621;DHT22;1320;48.128;11.592;2022-09-09T11:39:35;21.60;99.90
2621;DHT22;1320;48.128;11.592;2022-09-09T11:42:18;21.60;99.90
2621;DHT22;1320;48.128;11.592;2022-09-09T11:44:45;21.60;99.90
2621;DHT22;1320;48.128;11.592;2022-09-09T11:47:30;21.60;99.90
2621;DHT22;1320;48.128;11.592;2022-09-09T11:52:42;21.90;99.90
2621;DHT22;1320;48.128;11.592;2022-09-09T11:55:32;22.00;99.90
2621;DHT22;1320;48.128;11.592;2022-09-09T11:58:15;22.10;99.90
2621;DHT22;1320;48.128;11.592;2022-09-09T12:00:47;22.20;99.90
2621;DHT22;1320;48.128;11.592;2022-09-09T12:03:41;22.20;99.90
2621;DHT22;1320;48.128;11.592;2022-09-09T12:06:30;22.10;99.90
2621;DHT22;1320;48.128;11.592;2022-09-09T12:11:41;22.00;99.90
2621;DHT22;1320;48.128;11.592;2022-09-09T12:14:20;21.90;99.90
2621;DHT22;1320;48.128;11.592;2022-09-09T12:16:46;21.80;99.90
2621;DHT22;1320;48.128;11.592;2022-09-09T12:19:21;21.80;99.90
2621;DHT22;1320;48.128;11.592;2022-09-09T12:21:58;21.90;99.90
2621;DHT22;1320;48.128;11.592;2022-09-09T12:27:23;22.00;99.90
2621;DHT22;1320;48.128;11.592;2022-09-09T12:30:14;21.90;99.90
2621;DHT22;1320;48.128;11.592;2022-09-09T12:32:40;21.90;99.90
2621;DHT22;1320;48.128;11.592;2022-09-09T12:35:21;21.90;99.90
2621;DHT22;1320;48.128;11.592;2022-09-09T12:37:52;21.90;99.90
2621;DHT22;1320;48.128;11.592;2022-09-09T12:40:24;22.00;99.90
2621;DHT22;1320;48.128;11.592;2022-09-09T12:42:51;22.10;99.90
2621;DHT22;1320;48.128;11.592;2022-09-09T12:45:21;22.20;99.90
2621;DHT22;1320;48.128;11.592;2022-09-09T12:47:48;22.20;99.90
2621;DHT22;1320;48.128;11.592;2022-09-09T12:52:42;22.40;99.90
2621;DHT22;1320;48.128;11.592;2022-09-09T12:55:24;22.60;99.90
2621;DHT22;1320;48.128;11.592;2022-09-09T12:57:50;22.80;99.90
2621;DHT22;1320;48.128;11.592;2022-09-09T13:00:22;23.10;99.90
2621;DHT22;1320;48.128;11.592;2022-09-09T13:02:52;23.20;99.90
2621;DHT22;1320;48.128;11.592;2022-09-09T13:05:28;23.20;99.90
2621;DHT22;1320;48.128;11.592;2022-09-09T13:08:03;23.10;99.90
2621;DHT22;1320;48.128;11.592;2022-09-09T13:10:33;23.00;99.90
2621;DHT22;1320;48.128;11.592;2022-09-09T13:13:01;22.90;99.90
2621;DHT22;1320;48.128;11.592;2022-09-09T13:15:28;22.80;99.90
2621;DHT22;1320;48.128;11.592;2022-09-09T13:17:57;22.60;99.90
2621;DHT22;1320;48.128;11.592;2022-09-09T13:20:27;22.50;99.90
2621;DHT22;1320;48.128;11.592;2022-09-09T13:22:54;22.30;99.90
2621;DHT22;1320;48.128;11.592;2022-09-09T13:25:25;22.20;99.90
2621;DHT22;1320;48.128;11.592;2022-09-09T13:28:02;22.10;99.90
2621;DHT22;1320;48.128;11.592;2022-09-09T13:30:33;22.10;99.90
2621;DHT22;1320;48.128;11.592;2022-09-09T13:35:30;22.10;99.90
2621;DHT22;1320;48.128;11.592;2022-09-09T13:37:56;22.00;99.90
2621;DHT22;1320;48.128;11.592;2022-09-09T13:40:23;21.90;99.90
2621;DHT22;1320;48.128;11.592;2022-09-09T13:42:56;21.90;99.90
2621;DHT22;1320;48.128;11.592;2022-09-09T13:45:24;21.90;99.90
2621;DHT22;1320;48.128;11.592;2022-09-09T13:47:53;21.80;99.90
2621;DHT22;1320;48.128;11.592;2022-09-09T13:50:30;21.80;99.90
2621;DHT22;1320;48.128;11.592;2022-09-09T13:52:58;21.70;99.90
2621;DHT22;1320;48.128;11.592;2022-09-09T13:55:28;21.60;99.90
2621;DHT22;1320;48.128;11.592;2022-09-09T13:58:00;21.40;99.90
2621;DHT22;1320;48.128;11.592;2022-09-09T14:00:28;21.20;99.90
2621;DHT22;1320;48.128;11.592;2022-09-09T14:02:54;21.10;99.90
2621;DHT22;1320;48.128;11.592;2022-09-09T14:05:21;21.00;99.90
2621;DHT22;1320;48.128;11.592;2022-09-09T14:07:48;21.00;99.90
2621;DHT22;1320;48.128;11.592;2022-09-09T14:10:14;20.80;99.90
2621;DHT22;1320;48.128;11.592;2022-09-09T14:12:40;20.70;99.90
2621;DHT22;1320;48.128;11.592;2022-09-09T14:15:07;20.70;99.90
2621;DHT22;1320;48.128;11.592;2022-09-09T14:17:33;20.60;99.90
2621;DHT22;1320;48.128;11.592;2022-09-09T14:20:00;20.70;99.90
2621;DHT22;1320;48.128;11.592;2022-09-09T14:22:25;20.60;99.90
2621;DHT22;1320;48.128;11.592;2022-09-09T14:24:51;20.60;99.90
2621;DHT22;1320;48.128;11.592;2022-09-09T14:27:17;20.60;99.90
2621;DHT22;1320;48.128;11.592;2022-09-09T14:29:44;20.70;99.90
2621;DHT22;1320;48.128;11.592;2022-09-09T14:32:11;20.70;99.90
2621;DHT22;1320;48.128;11.592;2022-09-09T14:34:36;20.70;99.90
2621;DHT22;1320;48.128;11.592;2022-09-09T14:37:02;20.70;99.90
2621;DHT22;1320;48.128;11.592;2022-09-09T14:39:28;20.70;99.90
2621;DHT22;1320;48.128;11.592;2022-09-09T14:41:54;20.70;99.90
2621;DHT22;1320;48.128;11.592;2022-09-09T14:44:20;20.60;99.90
2621;DHT22;1320;48.128;11.592;2022-09-09T14:46:45;20.60;99.90
2621;DHT22;1320;48.128;11.592;2022-09-09T14:49:11;20.50;99.90
2621;DHT22;1320;48.128;11.592;2022-09-09T14:51:38;20.50;99.90
2621;DHT22;1320;48.128;11.592;2022-09-09T14:54:04;20.50;99.90
2621;DHT22;1320;48.128;11.592;2022-09-09T14:56:31;20.50;99.90
2621;DHT22;1320;48.128;11.592;2022-09-09T14:59:00;20.50;99.90
2621;DHT22;1320;48.128;11.592;2022-09-09T15:01:29;20.60;99.90
2621;DHT22;1320;48.128;11.592;2022-09-09T15:04:00;20.60;99.90
2621;DHT22;1320;48.128;11.592;2022-09-09T15:06:28;20.70;99.90
2621;DHT22;1320;48.128;11.592;2022-09-09T15:08:55;20.70;99.90
2621;DHT22;1320;48.128;11.592;2022-09-09T15:11:23;20.70;99.90
2621;DHT22;1320;48.128;11.592;2022-09-09T15:13:51;20.80;99.90
2621;DHT22;1320;48.128;11.592;2022-09-09T15:16:22;20.80;99.90
2621;DHT22;1320;48.128;11.592;2022-09-09T15:18:51;20.80;99.90
2621;DHT22;1320;48.128;11.592;2022-09-09T15:21:21;20.80;99.90
2621;DHT22;1320;48.128;11.592;2022-09-09T15:23:47;20.80;99.90
2621;DHT22;1320;48.128;11.592;2022-09-09T15:26:13;20.80;99.90
2621;DHT22;1320;48.128;11.592;2022-09-09T15:28:44;20.80;99.90
2621;DHT22;1320;48.128;11.592;2022-09-09T15:31:19;20.80;99.90
2621;DHT22;1320;48.128;11.592;2022-09-09T15:36:22;20.80;99.90
2621;DHT22;1320;48.128;11.592;2022-09-09T15:38:49;20.70;99.90
2621;DHT22;1320;48.128;11.592;2022-09-09T15:41:15;20.70;99.90
2621;DHT22;1320;48.128;11.592;2022-09-09T15:43:52;20.60;99.90
2621;DHT22;1320;48.128;11.592;2022-09-09T15:46:32;20.60;99.90
2621;DHT22;1320;48.128;11.592;2022-09-09T15:51:31;20.70;99.90
2621;DHT22;1320;48.128;11.592;2022-09-09T15:53:58;20.70;99.90
2621;DHT22;1320;48.128;11.592;2022-09-09T15:56:25;21.00;99.90
2621;DHT22;1320;48.128;11.592;2022-09-09T15:58:52;21.50;99.90
2621;DHT22;1320;48.128;11.592;2022-09-09T16:01:18;22.10;99.90
2621;DHT22;1320;48.128;11.592;2022-09-09T16:03:45;22.50;99.90
2621;DHT22;1320;48.128;11.592;2022-09-09T16:06:20;22.60;99.90
2621;DHT22;1320;48.128;11.592;2022-09-09T16:08:48;22.60;99.90
2621;DHT22;1320;48.128;11.592;2022-09-09T16:11:22;22.40;99.90
2621;DHT22;1320;48.128;11.592;2022-09-09T16:13:50;22.20;99.90
2621;DHT22;1320;48.128;11.592;2022-09-09T16:16:18;22.00;99.90
2621;DHT22;1320;48.128;11.592;2022-09-09T16:18:47;21.70;99.90
2621;DHT22;1320;48.128;11.592;2022-09-09T16:21:18;21.60;99.90
2621;DHT22;1320;48.128;11.592;2022-09-09T16:23:44;21.80;99.90
2621;DHT22;1320;48.128;11.592;2022-09-09T16:26:12;22.20;99.90
2621;DHT22;1320;48.128;11.592;2022-09-09T16:28:38;22.70;99.90
2621;DHT22;1320;48.128;11.592;2022-09-09T16:31:23;23.30;99.90
2621;DHT22;1320;48.128;11.592;2022-09-09T16:33:50;23.90;99.80
2621;DHT22;1320;48.128;11.592;2022-09-09T16:38:43;24.90;97.20
2621;DHT22;1320;48.128;11.592;2022-09-09T16:41:11;25.30;96.30
2621;DHT22;1320;48.128;11.592;2022-09-09T16:43:37;25.50;95.70
2621;DHT22;1320;48.128;11.592;2022-09-09T16:48:39;25.90;94.20
2621;DHT22;1320;48.128;11.592;2022-09-09T16:51:06;26.10;94.00
2621;DHT22;1320;48.128;11.592;2022-09-09T16:53:35;26.10;93.40
2621;DHT22;1320;48.128;11.592;2022-09-09T16:56:08;25.80;93.70
2621;DHT22;1320;48.128;11.592;2022-09-09T16:58:34;25.40;93.90
2621;DHT22;1320;48.128;11.592;2022-09-09T17:01:01;24.90;94.20
2621;DHT22;1320;48.128;11.592;2022-09-09T17:03:28;24.40;94.60
2621;DHT22;1320;48.128;11.592;2022-09-09T17:05:54;23.80;95.10
2621;DHT22;1320;48.128;11.592;2022-09-09T17:08:19;23.40;95.60
2621;DHT22;1320;48.128;11.592;2022-09-09T17:10:45;22.90;96.10
2621;DHT22;1320;48.128;11.592;2022-09-09T17:13:11;22.50;96.60
2621;DHT22;1320;48.128;11.592;2022-09-09T17:15:41;22.10;97.30
2621;DHT22;1320;48.128;11.592;2022-09-09T17:18:10;21.80;97.70
2621;DHT22;1320;48.128;11.592;2022-09-09T17:20:37;21.50;98.40
2621;DHT22;1320;48.128;11.592;2022-09-09T17:23:03;21.20;98.80
2621;DHT22;1320;48.128;11.592;2022-09-09T17:25:29;21.00;99.30
2621;DHT22;1320;48.128;11.592;2022-09-09T17:27:54;20.80;99.60
2621;DHT22;1320;48.128;11.592;2022-09-09T17:30:20;20.60;99.90
2621;DHT22;1320;48.128;11.592;2022-09-09T17:32:45;20.50;99.90
2621;DHT22;1320;48.128;11.592;2022-09-09T17:35:12;20.40;99.90
2621;DHT22;1320;48.128;11.592;2022-09-09T17:37:37;20.20;99.90
2621;DHT22;1320;48.128;11.592;2022-09-09T17:40:03;20.00;99.90
2621;DHT22;1320;48.128;11.592;2022-09-09T17:42:29;19.90;99.90
2621;DHT22;1320;48.128;11.592;2022-09-09T17:44:55;19.80;99.90
2621;DHT22;1320;48.128;11.592;2022-09-09T17:47:21;19.70;99.90
2621;DHT22;1320;48.128;11.592;2022-09-09T17:49:47;19.60;99.90
2621;DHT22;1320;48.128;11.592;2022-09-09T17:52:13;19.60;99.90
2621;DHT22;1320;48.128;11.592;2022-09-09T17:54:38;19.50;99.90
2621;DHT22;1320;48.128;11.592;2022-09-09T17:57:06;19.40;99.90
2621;DHT22;1320;48.128;11.592;2022-09-09T17:59:32;19.40;99.90
2621;DHT22;1320;48.128;11.592;2022-09-09T18:01:58;19.30;99.90
2621;DHT22;1320;48.128;11.592;2022-09-09T18:04:24;19.20;99.90
2621;DHT22;1320;48.128;11.592;2022-09-09T18:06:51;19.20;99.90
2621;DHT22;1320;48.128;11.592;2022-09-09T18:09:21;19.10;99.90
2621;DHT22;1320;48.128;11.592;2022-09-09T18:11:50;19.10;99.90
2621;DHT22;1320;48.128;11.592;2022-09-09T18:14:21;19.00;99.90
2621;DHT22;1320;48.128;11.592;2022-09-09T18:16:47;19.00;99.90
2621;DHT22;1320;48.128;11.592;2022-09-09T18:19:15;18.90;99.90
2621;DHT22;1320;48.128;11.592;2022-09-09T18:21:43;18.90;99.90